createdAt,value
2023-05-19T00:03:13.756Z,11.3
2023-05-19T00:18:13.353Z,11.3
2023-05-19T00:33:13.330Z,11.1
2023-05-19T00:48:13.295Z,11
2023-05-19T01:03:13.476Z,10.9
2023-05-19T01:18:13.398Z,10.8
2023-05-19T01:33:13.217Z,10.7
2023-05-19T01:48:13.299Z,10.7
2023-05-19T02:03:13.170Z,10.6
2023-05-19T02:18:13.237Z,10.3
2023-05-19T02:33:13.184Z,10.2
2023-05-19T02:48:13.233Z,9.9
2023-05-19T03:03:13.162Z,9.7
2023-05-19T03:18:13.148Z,9.6
2023-05-19T03:33:13.250Z,9.6
2023-05-19T03:48:13.139Z,9.5
2023-05-19T04:03:13.207Z,9.4
2023-05-19T04:18:13.084Z,9.3
2023-05-19T04:33:13.066Z,9.3
2023-05-19T04:48:13.055Z,9.4
2023-05-19T05:03:13.126Z,9.4
2023-05-19T05:18:13.010Z,9.6
2023-05-19T05:33:13.154Z,9.9
2023-05-19T05:48:12.991Z,10.4
2023-05-19T06:03:13.021Z,13.1
2023-05-19T06:18:12.954Z,14.7
2023-05-19T06:33:12.909Z,19.5
2023-05-19T06:48:12.959Z,21.7
2023-05-19T07:03:12.928Z,22.1
2023-05-19T07:18:12.930Z,23.9
2023-05-19T07:33:12.821Z,22.5
2023-05-19T07:48:12.823Z,21.3
2023-05-19T08:03:12.817Z,20.3
2023-05-19T08:18:12.784Z,18.7
2023-05-19T08:33:12.707Z,17.5
2023-05-19T08:48:12.686Z,16.8
2023-05-19T09:18:12.621Z,17.4
2023-05-19T09:33:12.616Z,18.8
2023-05-19T09:48:12.542Z,20.3
2023-05-19T10:03:12.557Z,20.9
2023-05-19T10:18:12.601Z,20.1
2023-05-19T10:33:12.553Z,18.9
2023-05-19T10:48:12.512Z,18.7
2023-05-19T11:03:12.469Z,18.8
2023-05-19T11:18:12.421Z,18.4
2023-05-19T11:33:12.426Z,17.5
2023-05-19T11:48:12.408Z,17.2
2023-05-19T12:03:12.375Z,17.1
2023-05-19T12:18:12.442Z,16.6
2023-05-19T12:33:12.278Z,17.3
2023-05-19T12:48:12.505Z,17.6
2023-05-19T13:03:12.264Z,17.4
2023-05-19T13:18:12.254Z,17.2
2023-05-19T13:33:12.228Z,17.2
2023-05-19T13:48:12.273Z,17.1
2023-05-19T14:03:12.179Z,17.2
2023-05-19T14:18:12.139Z,17.3
2023-05-19T14:33:12.116Z,17.4
2023-05-19T14:48:12.158Z,17.3
2023-05-19T15:03:12.060Z,17.1
2023-05-19T15:18:12.042Z,16.9
2023-05-19T15:33:12.037Z,16.8
2023-05-19T15:48:12.044Z,16.7
2023-05-19T16:03:12.013Z,16.3
2023-05-19T16:18:11.970Z,15.8
2023-05-19T16:33:11.916Z,15.2
2023-05-19T16:48:11.970Z,14.5
2023-05-19T17:03:12.066Z,13.9
2023-05-19T17:18:11.876Z,13.5
2023-05-19T17:33:11.823Z,13.3
2023-05-19T17:48:11.875Z,13.1
2023-05-19T18:03:11.854Z,13.1
2023-05-19T18:18:11.815Z,13
2023-05-19T18:33:11.681Z,13.1
2023-05-19T18:48:11.757Z,13
2023-05-19T19:03:11.726Z,12.9
2023-05-19T19:18:11.691Z,12.8
2023-05-19T19:33:11.757Z,12.8
2023-05-19T19:48:11.730Z,12.7
2023-05-19T20:03:11.679Z,12.6
2023-05-19T20:18:11.669Z,12.6
2023-05-19T20:33:11.738Z,12.6
2023-05-19T20:48:11.555Z,12.6
2023-05-19T21:03:11.722Z,12.7
2023-05-19T21:18:11.610Z,12.6
2023-05-19T21:33:11.528Z,12.7
2023-05-19T21:48:11.601Z,12.7
2023-05-19T22:03:11.534Z,12.7
2023-05-19T22:18:11.480Z,12.7
2023-05-19T22:33:11.517Z,12.6
2023-05-19T22:48:11.448Z,12.5
2023-05-19T23:03:11.398Z,12.5
2023-05-19T23:18:11.376Z,12.4
2023-05-19T23:33:11.359Z,12.4
2023-05-19T23:48:11.317Z,12.4
